Aviation Digital Data Service (ADDS)

Output produced by METARs form (1527 UTC 24 August 2019)
found at http://www.aviationweather.gov/metar/data/
 
Forecast for: EBBR (BRUSSELS NATIONA, BE)
Text: TAF EBBR 241110Z 2412/2518 10005KT CAVOK
Forecast period: 1200 UTC 24 August 2019 to 1800 UTC 25 August 2019
Forecast type: FROM: standard forecast or significant change
Winds: from the E (100 degrees) at 6 MPH (5 knots; 2.6 m/s)
Visibility: 6 or more miles 10+ km)
Ceiling: unknown
Clouds: missing
Weather: NSW  (no significant weather)